createdAt,value
2019-05-13T00:01:43.597Z,90.60
2019-05-13T00:04:14.107Z,90.90
2019-05-13T00:06:53.430Z,91.10
2019-05-13T00:09:14.606Z,91.10
2019-05-13T00:11:44.864Z,91.20
2019-05-13T00:14:14.201Z,91.50
2019-05-13T00:16:44.852Z,91.50
2019-05-13T00:19:15.463Z,91.70
2019-05-13T00:21:44.769Z,91.90
2019-05-13T00:24:14.082Z,91.90
2019-05-13T00:26:44.428Z,92.10
2019-05-13T00:29:14.347Z,92.20
2019-05-13T00:31:43.967Z,92.20
2019-05-13T00:34:14.364Z,92.60
2019-05-13T00:36:44.694Z,92.50
2019-05-13T00:39:15.384Z,93.00
2019-05-13T00:41:45.917Z,93.00
2019-05-13T00:44:15.228Z,93.10
2019-05-13T00:46:44.911Z,93.20
2019-05-13T00:49:14.259Z,93.30
2019-05-13T00:51:44.484Z,93.40
2019-05-13T00:54:14.033Z,93.30
2019-05-13T00:56:43.702Z,93.40
2019-05-13T00:59:14.154Z,93.40
2019-05-13T01:01:44.174Z,93.50
2019-05-13T01:04:14.305Z,93.30
2019-05-13T01:06:43.809Z,93.30
2019-05-13T01:09:14.525Z,93.30
2019-05-13T01:11:43.734Z,93.50
2019-05-13T01:14:14.346Z,93.40
2019-05-13T01:16:44.279Z,93.50
2019-05-13T01:19:14.341Z,93.70
2019-05-13T01:21:44.423Z,94.20
2019-05-13T01:24:14.385Z,94.30
2019-05-13T01:26:44.086Z,94.50
2019-05-13T01:29:13.647Z,94.70
2019-05-13T01:31:43.567Z,94.70
2019-05-13T01:34:14.404Z,95.20
2019-05-13T01:36:45.200Z,95.90
2019-05-13T01:39:14.634Z,95.60
2019-05-13T01:41:44.005Z,95.80
2019-05-13T01:44:13.982Z,95.90
2019-05-13T01:46:43.878Z,95.70
2019-05-13T01:49:13.610Z,95.80
2019-05-13T01:51:44.152Z,95.90
2019-05-13T01:54:14.238Z,96.10
2019-05-13T01:56:44.155Z,96.10
2019-05-13T01:59:15.188Z,96.30
2019-05-13T02:01:44.629Z,96.40
2019-05-13T02:04:14.323Z,96.40
2019-05-13T02:06:44.672Z,96.30
2019-05-13T02:09:14.354Z,96.20
2019-05-13T02:11:46.502Z,96.10
2019-05-13T02:14:14.703Z,96.40
2019-05-13T02:16:44.569Z,96.60
2019-05-13T02:19:14.369Z,96.80
2019-05-13T02:21:44.038Z,97.00
2019-05-13T02:24:14.467Z,97.10
2019-05-13T02:26:43.999Z,97.60
2019-05-13T02:29:14.355Z,97.70
2019-05-13T02:31:51.073Z,97.90
2019-05-13T02:37:52.484Z,98.60
2019-05-13T02:40:22.679Z,98.60
2019-05-13T02:42:52.260Z,98.70
2019-05-13T02:45:22.753Z,98.70
2019-05-13T02:47:52.284Z,99.00
2019-05-13T02:50:22.504Z,99.40
2019-05-13T02:52:53.125Z,99.70
2019-05-13T02:55:23.554Z,99.60
2019-05-13T02:57:53.964Z,99.90
2019-05-13T03:00:26.876Z,99.90
2019-05-13T03:02:56.166Z,99.90
2019-05-13T03:05:25.485Z,99.90
2019-05-13T03:07:54.809Z,99.90
2019-05-13T03:10:24.146Z,99.90
2019-05-13T03:12:54.038Z,99.90
2019-05-13T03:15:25.783Z,99.90
2019-05-13T03:18:05.124Z,99.90
2019-05-13T03:20:35.554Z,99.90
2019-05-13T03:23:04.918Z,99.90
2019-05-13T03:25:34.254Z,99.90
2019-05-13T03:28:03.648Z,99.90
2019-05-13T03:30:35.250Z,99.90
2019-05-13T03:33:10.987Z,99.90
2019-05-13T03:35:37.066Z,99.90
2019-05-13T03:38:06.100Z,99.90
2019-05-13T03:40:37.319Z,99.90
2019-05-13T03:43:07.480Z,99.90
2019-05-13T03:45:38.290Z,99.90
2019-05-13T03:48:08.603Z,99.90
2019-05-13T03:50:37.947Z,99.90
2019-05-13T03:53:07.296Z,99.90
2019-05-13T03:55:36.921Z,99.90
2019-05-13T03:58:06.318Z,99.90
2019-05-13T04:00:35.658Z,99.90
2019-05-13T04:03:05.080Z,99.90
2019-05-13T04:05:34.449Z,99.90
2019-05-13T04:08:03.808Z,99.90
2019-05-13T04:10:33.648Z,99.90
2019-05-13T04:13:04.035Z,99.90
2019-05-13T04:15:33.584Z,99.90
2019-05-13T04:18:03.145Z,99.90
2019-05-13T04:20:33.456Z,99.90
2019-05-13T04:23:03.272Z,99.90
2019-05-13T04:25:32.747Z,99.90
2019-05-13T04:28:03.164Z,99.90
2019-05-13T04:30:33.193Z,99.90
2019-05-13T04:33:03.072Z,99.90
2019-05-13T04:35:33.258Z,99.90
2019-05-13T04:38:04.250Z,99.90
2019-05-13T04:40:34.007Z,99.90
2019-05-13T04:43:03.371Z,99.90
2019-05-13T04:45:33.231Z,99.90
2019-05-13T04:48:03.927Z,99.90
2019-05-13T04:50:34.313Z,99.90
2019-05-13T04:53:03.959Z,99.90
2019-05-13T04:55:33.531Z,99.90
2019-05-13T04:58:03.768Z,99.90
2019-05-13T05:01:01.969Z,99.90
2019-05-13T05:03:44.679Z,99.90
2019-05-13T05:06:42.408Z,99.90
2019-05-13T05:09:32.999Z,99.60
2019-05-13T05:12:16.974Z,98.90
2019-05-13T05:14:58.558Z,98.60
2019-05-13T05:17:57.083Z,98.50
2019-05-13T05:20:38.706Z,98.50
2019-05-13T05:23:14.382Z,98.10
2019-05-13T05:25:53.093Z,98.20
2019-05-13T05:28:31.972Z,97.70
2019-05-13T05:31:16.860Z,97.70
2019-05-13T05:33:52.156Z,97.50
2019-05-13T05:36:54.534Z,97.80
2019-05-13T05:39:27.538Z,97.00
2019-05-13T05:41:58.305Z,96.90
2019-05-13T05:44:32.368Z,96.90
2019-05-13T05:47:04.002Z,96.10
2019-05-13T05:49:33.488Z,96.80
2019-05-13T05:52:06.031Z,96.80
2019-05-13T05:54:39.267Z,97.90
2019-05-13T05:57:11.901Z,96.90
2019-05-13T05:59:42.658Z,96.60
2019-05-13T06:02:12.333Z,97.30
2019-05-13T06:04:43.282Z,96.40
2019-05-13T06:07:13.827Z,96.10
2019-05-13T06:09:43.110Z,95.40
2019-05-13T06:12:12.939Z,95.40
2019-05-13T06:14:42.795Z,95.50
2019-05-13T06:17:12.198Z,96.10
2019-05-13T06:19:42.011Z,95.60
2019-05-13T06:22:12.498Z,96.30
2019-05-13T06:24:42.349Z,95.10
2019-05-13T06:27:12.763Z,95.10
2019-05-13T06:29:42.533Z,94.50
2019-05-13T06:32:21.215Z,94.80
2019-05-13T06:34:43.065Z,94.10
2019-05-13T06:37:12.396Z,95.40
2019-05-13T06:39:42.112Z,93.80
2019-05-13T06:42:11.770Z,93.10
2019-05-13T06:44:42.090Z,93.20
2019-05-13T06:47:11.713Z,93.10
2019-05-13T06:49:42.798Z,94.00
2019-05-13T06:52:12.991Z,93.00
2019-05-13T06:54:42.313Z,93.20
2019-05-13T06:57:13.463Z,91.80
2019-05-13T06:59:42.755Z,91.50
2019-05-13T07:02:12.547Z,90.90
2019-05-13T07:04:41.938Z,90.50
2019-05-13T07:07:16.719Z,91.00
2019-05-13T07:09:42.803Z,88.40
2019-05-13T07:12:12.229Z,88.20
2019-05-13T07:14:41.530Z,85.30
2019-05-13T07:17:12.368Z,86.30
2019-05-13T07:19:41.964Z,88.50
2019-05-13T07:22:11.748Z,87.60
2019-05-13T07:24:41.599Z,85.10
2019-05-13T07:27:12.281Z,84.30
2019-05-13T07:29:42.521Z,83.90
2019-05-13T07:32:12.148Z,87.50
2019-05-13T07:34:44.024Z,86.00
2019-05-13T07:37:12.591Z,79.60
2019-05-13T07:39:42.624Z,78.20
2019-05-13T07:42:12.470Z,75.80
2019-05-13T07:44:41.884Z,72.80
2019-05-13T07:47:11.583Z,72.70
2019-05-13T07:49:42.044Z,71.50
2019-05-13T07:52:12.006Z,73.60
2019-05-13T07:54:42.038Z,73.20
2019-05-13T07:57:12.252Z,73.20
2019-05-13T07:59:42.086Z,75.10
2019-05-13T08:02:12.350Z,74.10
2019-05-13T08:04:42.247Z,68.80
2019-05-13T08:07:12.211Z,70.30
2019-05-13T08:09:42.745Z,67.50
2019-05-13T08:12:14.519Z,69.90
2019-05-13T08:14:43.779Z,65.80
2019-05-13T08:17:13.353Z,70.70
2019-05-13T08:19:43.949Z,68.60
2019-05-13T08:22:13.430Z,66.30
2019-05-13T08:24:42.802Z,62.70
2019-05-13T08:27:13.004Z,65.40
2019-05-13T08:29:43.242Z,62.30
2019-05-13T08:32:13.465Z,63.60
2019-05-13T08:34:43.668Z,62.20
2019-05-13T08:37:13.889Z,62.60
2019-05-13T08:39:43.732Z,62.90
2019-05-13T08:42:19.466Z,65.10
2019-05-13T08:44:44.930Z,66.00
2019-05-13T08:47:14.302Z,65.30
2019-05-13T08:49:44.628Z,67.30
2019-05-13T08:52:14.696Z,62.10
2019-05-13T08:54:44.665Z,62.50
2019-05-13T08:57:14.805Z,62.90
2019-05-13T08:59:44.882Z,63.90
2019-05-13T09:02:15.086Z,60.30
2019-05-13T09:04:45.374Z,58.90
2019-05-13T09:07:15.756Z,55.30
2019-05-13T09:09:45.974Z,57.70
2019-05-13T09:12:28.469Z,60.80
2019-05-13T09:14:46.897Z,59.10
2019-05-13T09:17:16.203Z,54.20
2019-05-13T09:19:46.234Z,54.00
2019-05-13T09:22:16.465Z,52.90
2019-05-13T09:24:46.589Z,53.10
2019-05-13T09:27:16.691Z,55.40
2019-05-13T09:29:48.295Z,55.70
2019-05-13T09:32:17.582Z,53.00
2019-05-13T09:34:47.147Z,52.10
2019-05-13T09:37:22.385Z,48.80
2019-05-13T09:39:51.831Z,53.60
2019-05-13T09:42:21.746Z,52.30
2019-05-13T09:44:52.562Z,46.70
2019-05-13T09:47:21.829Z,48.10
2019-05-13T09:49:51.130Z,47.70
2019-05-13T09:52:22.550Z,45.10
2019-05-13T09:54:52.439Z,47.70
2019-05-13T09:57:22.093Z,46.40
2019-05-13T09:59:52.429Z,46.00
2019-05-13T10:02:21.886Z,46.20
2019-05-13T10:04:51.969Z,45.70
2019-05-13T10:07:22.966Z,48.70
2019-05-13T10:09:52.405Z,45.80
2019-05-13T10:12:24.382Z,45.20
2019-05-13T10:14:52.951Z,44.20
2019-05-13T10:17:22.440Z,40.70
2019-05-13T10:19:52.150Z,38.50
2019-05-13T10:22:22.121Z,42.00
2019-05-13T10:24:52.551Z,41.30
2019-05-13T10:27:22.526Z,41.90
2019-05-13T10:29:52.289Z,40.20
2019-05-13T10:32:22.050Z,41.10
2019-05-13T10:34:53.335Z,43.20
2019-05-13T10:37:22.768Z,44.70
2019-05-13T10:39:52.065Z,43.80
2019-05-13T10:42:22.264Z,41.00
2019-05-13T10:44:52.300Z,39.00
2019-05-13T10:47:22.721Z,41.60
2019-05-13T10:49:52.614Z,43.80
2019-05-13T10:52:22.889Z,42.30
2019-05-13T10:54:52.846Z,41.30
2019-05-13T10:57:22.377Z,38.40
2019-05-13T10:59:52.932Z,36.80
2019-05-13T11:02:22.651Z,40.20
2019-05-13T11:04:53.079Z,39.10
2019-05-13T11:07:23.209Z,41.30
2019-05-13T11:09:53.827Z,40.70
2019-05-13T11:12:28.167Z,40.70
2019-05-13T11:14:55.483Z,40.40
2019-05-13T11:17:43.591Z,40.00
2019-05-13T11:19:55.989Z,38.50
2019-05-13T11:22:25.353Z,41.60
2019-05-13T11:24:54.689Z,37.60
2019-05-13T11:27:24.269Z,36.60
2019-05-13T11:29:54.527Z,35.70
2019-05-13T11:32:24.670Z,38.50
2019-05-13T11:34:54.721Z,38.50
2019-05-13T11:37:25.299Z,37.90
2019-05-13T11:39:55.120Z,37.90
2019-05-13T11:42:25.361Z,40.80
2019-05-13T11:44:55.431Z,39.80
2019-05-13T11:47:25.651Z,37.40
2019-05-13T11:49:55.877Z,36.50
2019-05-13T11:52:26.082Z,37.40
2019-05-13T11:54:56.200Z,38.60
2019-05-13T11:57:26.503Z,36.10
2019-05-13T11:59:56.591Z,38.20
2019-05-13T12:02:26.856Z,34.50
2019-05-13T12:04:57.018Z,34.90
2019-05-13T12:07:27.136Z,36.30
2019-05-13T12:09:57.351Z,35.90
2019-05-13T12:12:31.791Z,36.50
2019-05-13T12:17:33.290Z,35.90
2019-05-13T12:20:02.296Z,38.10
2019-05-13T12:22:30.795Z,33.60
2019-05-13T12:25:02.119Z,33.00
2019-05-13T12:27:31.744Z,32.70
2019-05-13T12:30:03.066Z,33.60
2019-05-13T12:32:32.473Z,32.10
2019-05-13T12:35:03.503Z,33.80
2019-05-13T12:37:34.219Z,33.30
2019-05-13T12:40:04.084Z,34.00
2019-05-13T12:42:33.947Z,35.40
2019-05-13T12:45:09.755Z,33.90
2019-05-13T12:47:35.483Z,32.20
2019-05-13T12:50:06.678Z,31.30
2019-05-13T12:52:36.375Z,32.80
2019-05-13T12:55:07.013Z,31.50
2019-05-13T12:57:36.369Z,35.70
2019-05-13T13:00:07.121Z,32.50
2019-05-13T13:02:36.719Z,29.20
2019-05-13T13:05:13.487Z,33.30
2019-05-13T13:07:41.278Z,32.40
2019-05-13T13:10:08.713Z,28.70
2019-05-13T13:12:38.084Z,29.00
2019-05-13T13:15:33.079Z,28.90
2019-05-13T13:17:41.477Z,29.20
2019-05-13T13:20:15.154Z,32.50
2019-05-13T13:22:42.188Z,29.80
2019-05-13T13:25:13.227Z,29.60
2019-05-13T13:28:09.852Z,29.20
2019-05-13T13:30:15.454Z,29.70
2019-05-13T13:32:45.766Z,32.40
2019-05-13T13:35:15.308Z,29.70
2019-05-13T13:37:45.782Z,31.70
2019-05-13T13:40:24.549Z,29.30
2019-05-13T13:42:46.987Z,28.20
2019-05-13T13:45:16.404Z,26.70
2019-05-13T13:47:46.049Z,29.00
2019-05-13T13:50:15.619Z,28.40
2019-05-13T13:52:45.650Z,30.40
2019-05-13T13:55:16.129Z,28.60
2019-05-13T13:57:45.811Z,29.50
2019-05-13T14:00:32.709Z,29.90
2019-05-13T14:02:46.626Z,29.60
2019-05-13T14:05:16.399Z,28.70
2019-05-13T14:07:04.842Z,35.80
2019-05-13T14:07:45.774Z,27.60
2019-05-13T14:10:15.439Z,28.60
2019-05-13T14:12:45.807Z,29.40
2019-05-13T14:15:15.309Z,28.30
2019-05-13T14:17:44.609Z,27.70
2019-05-13T14:20:14.661Z,27.00
2019-05-13T14:22:44.957Z,27.10
2019-05-13T14:25:14.375Z,28.00
2019-05-13T14:27:43.717Z,26.40
2019-05-13T14:30:14.847Z,28.60
2019-05-13T14:32:45.459Z,28.60
2019-05-13T14:35:14.874Z,32.10
2019-05-13T14:37:45.875Z,30.80
2019-05-13T14:40:15.830Z,27.40
2019-05-13T14:42:45.154Z,27.70
2019-05-13T14:45:14.834Z,27.00
2019-05-13T14:47:44.438Z,28.40
2019-05-13T14:50:14.997Z,26.90
2019-05-13T14:52:45.571Z,27.80
2019-05-13T14:55:15.040Z,26.80
2019-05-13T14:57:44.332Z,28.00
2019-05-13T15:00:14.097Z,27.40
2019-05-13T15:02:43.521Z,28.70
2019-05-13T15:05:12.934Z,29.70
2019-05-13T15:07:42.334Z,29.00
2019-05-13T15:10:11.958Z,31.10
2019-05-13T15:12:41.632Z,29.60
2019-05-13T15:15:12.698Z,31.20
2019-05-13T15:17:42.607Z,29.60
2019-05-13T15:20:12.481Z,30.30
2019-05-13T15:22:42.564Z,30.30
2019-05-13T15:25:12.055Z,30.50
2019-05-13T15:27:42.119Z,30.80
2019-05-13T15:30:17.883Z,32.20
2019-05-13T15:32:44.390Z,32.10
2019-05-13T15:35:13.715Z,33.40
2019-05-13T15:37:43.007Z,34.70
2019-05-13T15:40:12.693Z,32.60
2019-05-13T15:42:42.040Z,32.60
2019-05-13T15:45:12.518Z,31.30
2019-05-13T15:47:42.037Z,32.20
2019-05-13T15:50:12.451Z,32.60
2019-05-13T15:52:43.327Z,33.30
2019-05-13T15:55:14.256Z,32.00
2019-05-13T15:57:43.777Z,33.50
2019-05-13T16:00:13.405Z,36.00
2019-05-13T16:02:42.729Z,35.80
2019-05-13T16:05:12.618Z,34.20
2019-05-13T16:07:42.688Z,34.60
2019-05-13T16:10:13.143Z,36.00
2019-05-13T16:12:42.960Z,37.70
2019-05-13T16:15:15.775Z,35.80
2019-05-13T16:17:45.073Z,35.70
2019-05-13T16:20:15.735Z,35.60
2019-05-13T16:22:45.104Z,36.00
2019-05-13T16:25:14.959Z,36.50
2019-05-13T16:27:44.256Z,36.10
2019-05-13T16:30:15.321Z,37.30
2019-05-13T16:32:47.999Z,35.60
2019-05-13T16:35:14.818Z,36.60
2019-05-13T16:37:44.657Z,35.80
2019-05-13T16:40:14.862Z,35.30
2019-05-13T16:42:44.731Z,35.20
2019-05-13T16:45:14.977Z,35.90
2019-05-13T16:48:03.849Z,36.30
2019-05-13T16:50:16.236Z,38.80
2019-05-13T16:52:45.598Z,37.00
2019-05-13T16:55:15.693Z,36.30
2019-05-13T16:57:45.712Z,35.50
2019-05-13T17:00:16.059Z,36.70
2019-05-13T17:02:46.035Z,36.10
2019-05-13T17:05:16.248Z,36.30
2019-05-13T17:07:46.333Z,38.30
2019-05-13T17:10:16.526Z,36.40
2019-05-13T17:12:46.576Z,38.10
2019-05-13T17:15:16.872Z,37.70
2019-05-13T17:17:47.060Z,35.90
2019-05-13T17:20:17.286Z,36.60
2019-05-13T17:22:47.218Z,35.80
2019-05-13T17:25:17.542Z,36.60
2019-05-13T17:27:47.596Z,36.90
2019-05-13T17:30:18.167Z,36.70
2019-05-13T17:32:48.526Z,39.00
2019-05-13T17:35:18.254Z,37.30
2019-05-13T17:37:48.157Z,39.90
2019-05-13T17:40:18.424Z,40.20
2019-05-13T17:42:48.381Z,38.30
2019-05-13T17:45:18.630Z,39.20
2019-05-13T17:47:48.470Z,39.70
2019-05-13T17:50:18.672Z,38.80
2019-05-13T17:52:48.463Z,39.20
2019-05-13T17:55:18.557Z,41.90
2019-05-13T17:57:48.479Z,40.20
2019-05-13T18:00:21.617Z,39.70
2019-05-13T18:02:51.421Z,42.10
2019-05-13T18:05:22.574Z,40.70
2019-05-13T18:07:51.909Z,40.90
2019-05-13T18:10:22.588Z,41.10
2019-05-13T18:12:51.222Z,41.60
2019-05-13T18:15:22.186Z,41.80
2019-05-13T18:17:52.597Z,42.60
2019-05-13T18:20:21.935Z,45.10
2019-05-13T18:22:52.322Z,43.90
2019-05-13T18:25:22.367Z,44.20
2019-05-13T18:27:52.903Z,43.60
2019-05-13T18:30:22.213Z,44.00
2019-05-13T18:32:51.844Z,47.40
2019-05-13T18:35:22.036Z,45.80
2019-05-13T18:37:51.463Z,46.60
2019-05-13T18:40:21.912Z,46.40
2019-05-13T18:42:51.559Z,46.00
2019-05-13T18:45:21.998Z,45.80
2019-05-13T18:47:51.474Z,47.40
2019-05-13T18:50:21.994Z,47.90
2019-05-13T18:52:52.503Z,48.70
2019-05-13T18:55:21.891Z,48.40
2019-05-13T18:57:51.869Z,48.60
2019-05-13T19:00:21.739Z,48.80
2019-05-13T19:02:51.152Z,49.00
2019-05-13T19:05:21.265Z,49.30
2019-05-13T19:07:51.849Z,50.00
2019-05-13T19:10:22.196Z,50.50
2019-05-13T19:12:51.684Z,52.00
2019-05-13T19:15:21.320Z,53.00
2019-05-13T19:17:52.068Z,53.60
2019-05-13T19:20:22.043Z,54.00
2019-05-13T19:22:51.893Z,53.90
2019-05-13T19:25:21.296Z,54.50
2019-05-13T19:27:51.707Z,53.70
2019-05-13T19:30:21.334Z,53.70
2019-05-13T19:32:52.046Z,54.10
2019-05-13T19:35:21.838Z,54.30
2019-05-13T19:37:51.705Z,55.60
2019-05-13T19:40:22.088Z,56.10
2019-05-13T19:42:51.524Z,57.30
2019-05-13T19:45:21.771Z,55.60
2019-05-13T19:47:51.854Z,55.40
2019-05-13T19:50:22.386Z,55.00
2019-05-13T19:52:53.395Z,54.80
2019-05-13T19:55:22.717Z,54.50
2019-05-13T19:57:52.032Z,54.60
2019-05-13T20:00:22.174Z,56.00
2019-05-13T20:02:51.476Z,54.90
2019-05-13T20:05:23.053Z,55.80
2019-05-13T20:07:52.312Z,55.30
2019-05-13T20:10:22.839Z,54.50
2019-05-13T20:12:52.156Z,55.30
2019-05-13T20:15:22.119Z,54.80
2019-05-13T20:17:52.137Z,55.10
2019-05-13T20:20:21.487Z,54.90
2019-05-13T20:22:51.776Z,55.20
2019-05-13T20:25:21.751Z,55.70
2019-05-13T20:27:51.611Z,55.60
2019-05-13T20:30:22.077Z,55.70
2019-05-13T20:32:51.687Z,56.30
2019-05-13T20:35:21.907Z,57.00
2019-05-13T20:37:51.652Z,57.50
2019-05-13T20:40:22.212Z,57.40
2019-05-13T20:42:51.710Z,56.90
2019-05-13T20:45:22.404Z,56.60
2019-05-13T20:47:51.918Z,55.60
2019-05-13T20:50:22.190Z,54.10
2019-05-13T20:52:51.761Z,53.90
2019-05-13T20:55:22.048Z,54.00
2019-05-13T20:57:53.082Z,54.40
2019-05-13T21:00:22.717Z,55.40
2019-05-13T21:02:52.052Z,54.30
2019-05-13T21:05:21.955Z,53.60
2019-05-13T21:07:51.650Z,54.50
2019-05-13T21:10:21.388Z,55.00
2019-05-13T21:12:51.447Z,55.10
2019-05-13T21:15:20.910Z,54.90
2019-05-13T21:17:51.589Z,54.20
2019-05-13T21:20:25.073Z,55.20
2019-05-13T21:22:52.043Z,55.00
2019-05-13T21:25:21.387Z,55.70
2019-05-13T21:27:51.493Z,57.50
2019-05-13T21:30:22.351Z,57.80
2019-05-13T21:32:51.872Z,56.40
2019-05-13T21:35:21.370Z,56.40
2019-05-13T21:37:51.320Z,57.70
2019-05-13T21:40:21.803Z,57.90
2019-05-13T21:42:52.666Z,58.00
2019-05-13T21:45:22.234Z,58.40
2019-05-13T21:47:51.825Z,58.60
2019-05-13T21:50:33.258Z,59.70
2019-05-13T21:52:53.034Z,59.70
2019-05-13T21:55:22.315Z,60.40
2019-05-13T21:57:53.058Z,60.40
2019-05-13T22:00:26.255Z,61.60
2019-05-13T22:02:57.221Z,61.60
2019-05-13T22:05:26.538Z,63.10
2019-05-13T22:07:55.830Z,61.70
2019-05-13T22:10:25.138Z,62.40
2019-05-13T22:12:54.433Z,62.20
2019-05-13T22:15:23.756Z,63.00
2019-05-13T22:17:53.621Z,63.30
2019-05-13T22:20:23.875Z,63.40
2019-05-13T22:22:54.024Z,64.50
2019-05-13T22:25:24.110Z,66.40
2019-05-13T22:27:54.334Z,65.70
2019-05-13T22:30:24.407Z,65.30
2019-05-13T22:32:54.614Z,66.30
2019-05-13T22:35:24.717Z,66.30
2019-05-13T22:37:54.936Z,66.80
2019-05-13T22:40:24.975Z,68.00
2019-05-13T22:42:56.812Z,67.80
2019-05-13T22:45:26.179Z,67.70
2019-05-13T22:47:55.649Z,69.30
2019-05-13T22:50:25.917Z,70.80
2019-05-13T22:52:55.987Z,69.80
2019-05-13T22:55:26.224Z,69.90
2019-05-13T22:57:56.231Z,70.70
2019-05-13T23:00:26.438Z,71.30
2019-05-13T23:02:56.655Z,70.70
2019-05-13T23:05:26.737Z,70.40
2019-05-13T23:07:56.950Z,71.70
2019-05-13T23:10:27.012Z,72.50
2019-05-13T23:12:57.267Z,72.00
2019-05-13T23:15:27.693Z,72.10
2019-05-13T23:17:57.695Z,73.00
2019-05-13T23:20:27.731Z,74.40
2019-05-13T23:22:57.934Z,74.20
2019-05-13T23:25:28.031Z,73.80
2019-05-13T23:27:58.311Z,75.10
2019-05-13T23:30:28.344Z,74.50
2019-05-13T23:32:58.555Z,75.80
2019-05-13T23:35:28.770Z,76.50
2019-05-13T23:37:58.965Z,76.00
2019-05-13T23:40:29.085Z,76.40
2019-05-13T23:42:59.278Z,76.90
2019-05-13T23:45:31.237Z,76.80
2019-05-13T23:48:01.591Z,77.80
2019-05-13T23:50:32.100Z,78.30
2019-05-13T23:53:01.536Z,78.10
2019-05-13T23:55:32.194Z,78.40
2019-05-13T23:58:01.884Z,79.10
